createdAt,value
2023-03-22T00:01:31.950Z,11.74
2023-03-22T00:04:11.908Z,11.90
2023-03-22T00:06:51.027Z,11.77
2023-03-22T00:09:35.380Z,11.66
2023-03-22T00:12:15.080Z,11.57
2023-03-22T00:14:54.798Z,10.86
2023-03-22T00:17:33.937Z,11.49
2023-03-22T00:20:14.342Z,11.12
2023-03-22T00:22:54.561Z,11.06
2023-03-22T00:25:38.794Z,10.68
2023-03-22T00:28:18.648Z,11.09
2023-03-22T00:31:02.031Z,10.46
2023-03-22T00:33:41.736Z,10.55
2023-03-22T00:36:20.887Z,10.41
2023-03-22T00:38:59.996Z,9.77
2023-03-22T00:41:44.230Z,9.81
2023-03-22T00:44:23.357Z,9.48
2023-03-22T00:47:02.518Z,9.86
2023-03-22T00:49:41.723Z,9.79
2023-03-22T00:52:20.803Z,9.39
2023-03-22T00:55:00.039Z,9.81
2023-03-22T00:57:44.274Z,9.77
2023-03-22T01:00:24.344Z,9.41
2023-03-22T01:03:06.225Z,9.77
2023-03-22T01:05:45.308Z,9.81
2023-03-22T01:08:24.565Z,10.00
2023-03-22T01:11:03.685Z,10.30
2023-03-22T01:13:48.983Z,10.53
2023-03-22T01:16:28.364Z,9.83
2023-03-22T01:19:07.653Z,9.34
2023-03-22T01:21:47.033Z,9.79
2023-03-22T01:24:26.858Z,10.17
2023-03-22T01:27:06.845Z,10.18
2023-03-22T01:29:51.094Z,9.67
2023-03-22T01:32:30.627Z,9.52
2023-03-22T01:35:09.764Z,10.08
2023-03-22T01:37:49.762Z,9.87
2023-03-22T01:40:29.144Z,10.05
2023-03-22T01:43:08.368Z,10.07
2023-03-22T01:45:55.538Z,9.76
2023-03-22T01:48:39.704Z,9.98
2023-03-22T01:51:25.319Z,10.17
2023-03-22T01:54:09.778Z,10.27
2023-03-22T01:56:50.332Z,10.37
2023-03-22T01:59:29.957Z,10.17
2023-03-22T02:02:19.959Z,10.68
2023-03-22T02:04:59.943Z,10.30
2023-03-22T02:07:39.172Z,10.32
2023-03-22T02:10:20.008Z,10.61
2023-03-22T02:13:26.618Z,10.84
2023-03-22T02:16:21.859Z,10.81
2023-03-22T02:19:35.096Z,10.46
2023-03-22T02:22:43.994Z,10.56
2023-03-22T02:25:54.340Z,10.90
2023-03-22T02:28:48.513Z,11.05
2023-03-22T02:31:54.814Z,10.58
2023-03-22T02:35:10.444Z,10.38
2023-03-22T02:38:25.493Z,10.02
2023-03-22T02:41:20.224Z,10.29
2023-03-22T02:44:13.426Z,10.30
2023-03-22T02:47:00.323Z,10.24
2023-03-22T02:49:48.798Z,10.27
2023-03-22T02:52:35.608Z,10.13
2023-03-22T02:55:24.345Z,10.05
2023-03-22T02:58:16.017Z,9.90
2023-03-22T03:01:00.837Z,10.02
2023-03-22T03:03:42.734Z,9.82
2023-03-22T03:06:27.155Z,10.18
2023-03-22T03:09:08.143Z,10.60
2023-03-22T03:11:47.255Z,10.69
2023-03-22T03:14:37.638Z,11.24
2023-03-22T03:17:30.911Z,10.47
2023-03-22T03:20:31.496Z,10.65
2023-03-22T03:23:23.701Z,10.81
2023-03-22T03:26:10.657Z,11.19
2023-03-22T03:28:58.492Z,10.58
2023-03-22T03:31:50.241Z,10.56
2023-03-22T03:34:36.823Z,10.48
2023-03-22T03:37:23.150Z,10.36
2023-03-22T03:40:11.018Z,10.00
2023-03-22T03:42:56.212Z,10.37
2023-03-22T03:45:36.889Z,10.57
2023-03-22T03:48:27.233Z,10.63
2023-03-22T03:51:09.359Z,11.12
2023-03-22T03:53:48.695Z,11.39
2023-03-22T03:56:27.866Z,11.34
2023-03-22T03:59:07.083Z,11.36
2023-03-22T04:01:51.007Z,11.26
2023-03-22T04:04:36.717Z,11.36
2023-03-22T04:07:16.324Z,11.01
2023-03-22T04:09:55.514Z,11.29
2023-03-22T04:12:34.727Z,10.92
2023-03-22T04:15:15.268Z,10.79
2023-03-22T04:17:54.801Z,10.33
2023-03-22T04:20:40.443Z,10.29
2023-03-22T04:23:19.826Z,10.33
2023-03-22T04:26:00.826Z,10.25
2023-03-22T04:28:39.969Z,10.69
2023-03-22T04:31:19.645Z,10.26
2023-03-22T04:34:01.473Z,10.38
2023-03-22T04:36:46.292Z,10.91
2023-03-22T04:39:25.889Z,10.58
2023-03-22T04:42:05.343Z,10.06
2023-03-22T04:44:44.619Z,10.44
2023-03-22T04:47:24.284Z,9.89
2023-03-22T04:50:03.396Z,10.23
2023-03-22T04:52:49.103Z,10.00
2023-03-22T04:55:28.688Z,9.57
2023-03-22T04:58:08.360Z,11.02
2023-03-22T05:00:47.491Z,12.18
2023-03-22T05:03:26.717Z,12.09
2023-03-22T05:06:08.753Z,12.36
2023-03-22T05:08:56.052Z,13.93
2023-03-22T05:11:35.590Z,13.47
2023-03-22T05:14:15.759Z,13.76
2023-03-22T05:16:55.021Z,11.33
2023-03-22T05:19:34.240Z,10.85
2023-03-22T05:22:14.320Z,10.61
2023-03-22T05:24:58.628Z,11.14
2023-03-22T05:27:39.940Z,11.48
2023-03-22T05:30:19.672Z,10.79
2023-03-22T05:32:58.802Z,11.38
2023-03-22T05:35:39.556Z,11.49
2023-03-22T05:38:18.709Z,11.27
2023-03-22T05:41:03.198Z,10.74
2023-03-22T05:43:42.356Z,10.61
2023-03-22T05:46:21.722Z,11.84
2023-03-22T05:49:00.866Z,11.83
2023-03-22T05:51:42.759Z,10.99
2023-03-22T05:54:22.296Z,11.97
2023-03-22T05:57:06.769Z,11.26
2023-03-22T05:59:45.912Z,11.87
2023-03-22T06:02:25.270Z,12.01
2023-03-22T06:05:04.451Z,12.48
2023-03-22T06:07:43.826Z,12.71
2023-03-22T06:10:25.251Z,12.24
2023-03-22T06:13:09.553Z,11.31
2023-03-22T06:15:48.740Z,10.44
2023-03-22T06:18:27.926Z,10.90
2023-03-22T06:21:07.243Z,10.75
2023-03-22T06:23:46.618Z,10.27
2023-03-22T06:26:25.738Z,10.78
2023-03-22T06:29:10.009Z,10.13
2023-03-22T06:31:49.135Z,10.90
2023-03-22T06:34:28.588Z,10.72
2023-03-22T06:37:07.815Z,11.34
2023-03-22T06:39:47.308Z,13.76
2023-03-22T06:42:27.118Z,14.80
2023-03-22T06:45:15.731Z,15.25
2023-03-22T06:47:55.205Z,16.08
2023-03-22T06:50:35.156Z,13.90
2023-03-22T06:53:14.908Z,12.72
2023-03-22T06:55:55.425Z,11.87
2023-03-22T06:58:34.736Z,12.21
2023-03-22T07:01:19.117Z,11.71
2023-03-22T07:03:58.948Z,12.01
2023-03-22T07:06:38.254Z,12.51
2023-03-22T07:09:17.912Z,12.51
2023-03-22T07:11:57.206Z,13.13
2023-03-22T07:14:36.386Z,13.81
2023-03-22T07:17:20.761Z,13.79
2023-03-22T07:20:00.029Z,14.34
2023-03-22T07:22:39.428Z,15.52
2023-03-22T07:25:18.779Z,16.77
2023-03-22T07:27:58.034Z,17.73
2023-03-22T07:30:38.852Z,16.14
2023-03-22T07:33:23.363Z,15.87
2023-03-22T07:36:02.732Z,17.26
2023-03-22T07:38:42.460Z,17.40
2023-03-22T07:41:21.612Z,17.66
2023-03-22T07:44:16.707Z,16.02
2023-03-22T07:46:57.122Z,15.51
2023-03-22T07:49:41.625Z,13.14
2023-03-22T07:52:20.809Z,13.06
2023-03-22T07:55:00.010Z,12.55
2023-03-22T07:57:39.262Z,16.84
2023-03-22T08:00:19.621Z,18.32
2023-03-22T08:02:58.798Z,13.09
2023-03-22T08:05:43.266Z,23.45
2023-03-22T08:08:22.584Z,16.60
2023-03-22T08:11:01.973Z,11.82
2023-03-22T08:13:42.355Z,13.08
2023-03-22T08:16:24.609Z,10.49
2023-03-22T08:19:03.891Z,9.88
2023-03-22T08:21:48.310Z,9.61
2023-03-22T08:24:27.433Z,9.75
2023-03-22T08:27:06.779Z,9.84
2023-03-22T08:29:45.876Z,9.28
2023-03-22T08:32:25.532Z,9.31
2023-03-22T08:35:05.051Z,8.20
2023-03-22T08:37:49.442Z,10.94
2023-03-22T08:40:29.071Z,11.33
2023-03-22T08:43:08.391Z,8.66
2023-03-22T08:45:48.601Z,7.96
2023-03-22T08:48:30.146Z,5.87
2023-03-22T08:51:09.938Z,5.60
2023-03-22T08:53:55.283Z,3.91
2023-03-22T08:56:38.469Z,3.52
2023-03-22T08:59:17.799Z,3.26
2023-03-22T09:01:56.973Z,3.16
2023-03-22T09:04:36.365Z,3.06
2023-03-22T09:07:15.471Z,3.04
2023-03-22T09:09:59.784Z,2.91
2023-03-22T09:12:38.908Z,2.61
2023-03-22T09:15:18.690Z,2.36
2023-03-22T09:17:57.813Z,2.10
2023-03-22T09:20:37.281Z,2.27
2023-03-22T09:23:16.570Z,2.08
2023-03-22T09:26:00.863Z,1.69
2023-03-22T09:28:41.385Z,1.54
2023-03-22T09:31:21.086Z,1.15
2023-03-22T09:34:00.331Z,1.28
2023-03-22T09:36:40.183Z,1.16
2023-03-22T09:39:19.302Z,1.19
2023-03-22T09:42:08.264Z,1.12
2023-03-22T09:44:51.971Z,1.22
2023-03-22T09:47:44.695Z,1.18
2023-03-22T09:50:28.203Z,1.23
2023-03-22T09:53:07.868Z,1.32
2023-03-22T09:55:53.069Z,1.14
2023-03-22T09:58:46.020Z,1.22
2023-03-22T10:01:38.665Z,1.19
2023-03-22T10:04:41.705Z,1.14
2023-03-22T10:07:33.356Z,1.21
2023-03-22T10:10:21.509Z,1.26
2023-03-22T10:13:08.736Z,1.05
2023-03-22T10:15:55.375Z,1.12
2023-03-22T10:18:44.499Z,1.32
2023-03-22T10:21:26.486Z,1.13
2023-03-22T10:24:12.406Z,1.29
2023-03-22T10:26:54.968Z,1.29
2023-03-22T10:29:39.768Z,1.07
2023-03-22T10:32:29.662Z,1.30
2023-03-22T10:35:09.694Z,1.13
2023-03-22T10:37:54.119Z,1.38
2023-03-22T10:40:36.954Z,1.30
2023-03-22T10:43:27.109Z,1.14
2023-03-22T10:46:11.060Z,1.11
2023-03-22T10:48:58.370Z,1.14
2023-03-22T10:51:46.322Z,1.09
2023-03-22T10:54:29.080Z,1.22
2023-03-22T10:57:08.225Z,1.30
2023-03-22T10:59:54.020Z,1.56
2023-03-22T11:02:35.710Z,1.38
2023-03-22T11:05:29.089Z,2.03
2023-03-22T11:08:10.222Z,1.56
2023-03-22T11:11:01.366Z,1.27
2023-03-22T11:13:41.189Z,1.47
2023-03-22T11:16:25.440Z,1.44
2023-03-22T11:19:08.435Z,1.29
2023-03-22T11:21:53.037Z,1.27
2023-03-22T11:24:35.275Z,1.39
2023-03-22T11:27:26.057Z,1.41
2023-03-22T11:30:15.014Z,1.40
2023-03-22T11:32:54.807Z,1.40
2023-03-22T11:35:36.471Z,1.44
2023-03-22T11:38:31.717Z,1.43
2023-03-22T11:41:15.001Z,1.62
2023-03-22T11:43:58.331Z,1.74
2023-03-22T11:46:39.637Z,2.17
2023-03-22T11:49:24.996Z,1.85
2023-03-22T11:52:15.825Z,1.64
2023-03-22T11:55:02.469Z,1.40
2023-03-22T11:57:44.367Z,1.58
2023-03-22T12:00:29.199Z,1.51
2023-03-22T12:03:14.862Z,1.58
2023-03-22T12:05:58.281Z,1.41
2023-03-22T12:08:49.425Z,1.62
2023-03-22T12:11:40.162Z,1.53
2023-03-22T12:14:28.982Z,1.65
2023-03-22T12:17:17.957Z,1.45
2023-03-22T12:20:10.817Z,1.40
2023-03-22T12:22:56.339Z,1.37
2023-03-22T12:25:42.123Z,1.50
2023-03-22T12:28:30.169Z,1.31
2023-03-22T12:31:12.689Z,1.65
2023-03-22T12:33:56.402Z,1.57
2023-03-22T12:36:45.453Z,1.41
2023-03-22T12:39:33.192Z,1.47
2023-03-22T12:42:22.962Z,1.42
2023-03-22T12:45:12.658Z,1.52
2023-03-22T12:47:58.568Z,1.40
2023-03-22T12:50:45.677Z,1.77
2023-03-22T12:53:27.783Z,1.50
2023-03-22T12:56:09.485Z,1.62
2023-03-22T12:58:50.862Z,1.56
2023-03-22T13:01:44.092Z,1.61
2023-03-22T13:04:39.718Z,1.90
2023-03-22T13:07:23.350Z,1.86
2023-03-22T13:10:02.617Z,1.75
2023-03-22T13:12:42.211Z,1.59
2023-03-22T13:15:42.308Z,1.73
2023-03-22T13:18:39.233Z,1.66
2023-03-22T13:21:22.293Z,1.88
2023-03-22T13:24:06.205Z,1.80
2023-03-22T13:26:52.589Z,2.12
2023-03-22T13:29:42.989Z,1.73
2023-03-22T13:32:38.884Z,1.84
2023-03-22T13:35:34.465Z,1.71
2023-03-22T13:38:18.093Z,1.56
2023-03-22T13:41:03.716Z,1.66
2023-03-22T13:43:53.490Z,1.59
2023-03-22T13:46:51.689Z,1.64
2023-03-22T13:49:51.065Z,1.68
2023-03-22T13:52:44.319Z,1.75
2023-03-22T13:55:47.379Z,1.76
2023-03-22T13:58:43.211Z,1.68
2023-03-22T14:01:32.563Z,1.56
2023-03-22T14:04:17.397Z,1.73
2023-03-22T14:07:02.699Z,1.55
2023-03-22T14:09:55.794Z,1.57
2023-03-22T14:12:43.942Z,1.75
2023-03-22T14:15:26.672Z,1.45
2023-03-22T14:18:11.562Z,1.56
2023-03-22T14:20:55.870Z,1.44
2023-03-22T14:53:39.521Z,1.34
2023-03-22T14:56:25.821Z,1.24
2023-03-22T14:59:11.756Z,1.34
2023-03-22T15:01:58.241Z,1.35
2023-03-22T15:04:37.855Z,1.46
2023-03-22T15:07:17.875Z,1.43
2023-03-22T15:09:57.201Z,1.55
2023-03-22T15:12:37.263Z,5.54
2023-03-22T15:15:24.503Z,2.85
2023-03-22T15:18:07.097Z,2.59
2023-03-22T15:20:47.929Z,1.62
2023-03-22T15:23:29.952Z,1.73
2023-03-22T15:26:15.893Z,1.71
2023-03-22T15:29:04.062Z,1.80
2023-03-22T15:31:54.944Z,1.80
2023-03-22T15:34:38.405Z,2.02
2023-03-22T15:37:23.545Z,2.33
2023-03-22T15:40:03.509Z,1.71
2023-03-22T15:42:45.480Z,1.51
2023-03-22T15:45:28.763Z,2.27
2023-03-22T15:48:27.950Z,1.82
2023-03-22T15:51:07.440Z,1.75
2023-03-22T15:53:48.169Z,4.15
2023-03-22T15:56:40.482Z,2.45
2023-03-22T15:59:31.590Z,1.68
2023-03-22T16:02:31.584Z,1.57
2023-03-22T16:05:20.118Z,1.63
2023-03-22T16:08:00.755Z,1.69
2023-03-22T16:10:44.904Z,1.62
2023-03-22T16:13:27.334Z,5.31
2023-03-22T16:16:06.640Z,1.48
2023-03-22T16:18:46.294Z,2.06
2023-03-22T16:21:36.737Z,1.59
2023-03-22T16:24:18.560Z,1.92
2023-03-22T16:26:58.131Z,1.74
2023-03-22T16:29:37.456Z,1.64
2023-03-22T16:32:22.662Z,1.48
2023-03-22T16:35:02.023Z,1.59
2023-03-22T16:37:46.835Z,1.71
2023-03-22T16:40:30.655Z,1.68
2023-03-22T16:43:10.285Z,1.59
2023-03-22T16:45:49.939Z,1.82
2023-03-22T16:48:29.413Z,1.63
2023-03-22T16:51:08.737Z,1.70
2023-03-22T16:53:53.300Z,1.80
2023-03-22T16:56:35.937Z,1.73
2023-03-22T16:59:15.373Z,1.84
2023-03-22T17:01:54.849Z,2.13
2023-03-22T17:04:34.354Z,1.87
2023-03-22T17:07:20.812Z,1.74
2023-03-22T17:10:06.327Z,2.00
2023-03-22T17:12:47.476Z,1.76
2023-03-22T17:15:39.454Z,1.76
2023-03-22T17:18:18.888Z,1.66
2023-03-22T17:20:58.567Z,2.15
2023-03-22T17:23:37.897Z,4.63
2023-03-22T17:26:24.727Z,11.38
2023-03-22T17:29:04.151Z,7.16
2023-03-22T17:31:50.367Z,3.28
2023-03-22T17:34:37.600Z,4.79
2023-03-22T17:37:18.367Z,4.52
2023-03-22T17:40:26.446Z,3.28
2023-03-22T17:43:03.237Z,4.57
2023-03-22T17:46:16.021Z,5.21
2023-03-22T17:48:45.099Z,3.99
2023-03-22T17:51:24.917Z,6.08
2023-03-22T17:54:27.068Z,19.50
2023-03-22T18:00:01.169Z,5.57
2023-03-22T18:02:40.769Z,5.93
2023-03-22T18:05:28.110Z,3.53
2023-03-22T18:08:27.022Z,2.80
2023-03-22T18:11:07.960Z,3.87
2023-03-22T18:16:53.223Z,5.12
2023-03-22T18:19:33.966Z,5.25
2023-03-22T18:22:13.464Z,3.32
2023-03-22T18:24:52.758Z,2.72
2023-03-22T18:27:42.570Z,2.79
2023-03-22T18:30:29.209Z,2.85
2023-03-22T18:33:13.989Z,3.39
2023-03-22T18:35:56.766Z,2.97
2023-03-22T18:39:06.328Z,3.21
2023-03-22T18:41:46.212Z,6.61
2023-03-22T18:44:28.281Z,7.66
2023-03-22T18:47:11.321Z,8.90
2023-03-22T18:49:55.834Z,6.53
2023-03-22T18:52:48.936Z,5.72
2023-03-22T18:55:37.114Z,4.33
2023-03-22T18:58:17.035Z,3.43
2023-03-22T19:00:56.482Z,4.88
2023-03-22T19:03:36.891Z,6.72
2023-03-22T19:06:23.350Z,5.03
2023-03-22T19:09:02.719Z,4.79
2023-03-22T19:11:42.082Z,6.45
2023-03-22T19:15:11.125Z,8.40
2023-03-22T19:17:22.083Z,4.90
2023-03-22T19:20:01.380Z,4.49
2023-03-22T19:22:45.882Z,4.29
2023-03-22T19:25:25.214Z,6.13
2023-03-22T19:28:06.688Z,4.90
2023-03-22T19:30:46.107Z,6.48
2023-03-22T19:33:39.898Z,8.87
2023-03-22T19:36:26.936Z,7.48
2023-03-22T19:39:13.373Z,5.37
2023-03-22T19:42:05.400Z,5.15
2023-03-22T19:44:46.202Z,4.97
2023-03-22T19:47:25.533Z,4.86
2023-03-22T19:50:05.776Z,4.64
2023-03-22T19:52:46.987Z,4.60
2023-03-22T19:55:33.473Z,4.87
2023-03-22T19:58:13.203Z,4.66
2023-03-22T20:00:52.622Z,4.74
2023-03-22T20:03:31.924Z,4.61
2023-03-22T20:06:12.651Z,4.61
2023-03-22T20:08:52.099Z,4.56
2023-03-22T20:11:43.450Z,4.40
2023-03-22T20:14:23.005Z,4.34
2023-03-22T20:17:06.892Z,4.57
2023-03-22T20:19:47.919Z,4.26
2023-03-22T20:22:27.501Z,3.78
2023-03-22T20:25:07.243Z,3.70
2023-03-22T20:27:53.995Z,4.57
2023-03-22T20:30:34.734Z,4.77
2023-03-22T20:33:14.029Z,4.38
2023-03-22T20:35:56.629Z,4.41
2023-03-22T20:38:35.991Z,4.48
2023-03-22T20:41:16.581Z,4.27
2023-03-22T20:44:04.326Z,4.29
2023-03-22T20:46:44.461Z,4.46
2023-03-22T20:49:23.815Z,5.27
2023-03-22T20:52:03.166Z,5.86
2023-03-22T20:54:42.713Z,8.10
2023-03-22T20:57:22.294Z,8.61
2023-03-22T21:00:11.183Z,8.46
2023-03-22T21:02:52.063Z,8.02
2023-03-22T21:05:32.112Z,10.71
2023-03-22T21:08:12.469Z,12.26
2023-03-22T21:10:52.776Z,12.31
2023-03-22T21:13:32.329Z,11.11
2023-03-22T21:16:25.083Z,12.19
2023-03-22T21:19:04.450Z,10.16
2023-03-22T21:21:45.526Z,8.40
2023-03-22T21:24:26.480Z,6.78
2023-03-22T21:27:05.887Z,7.09
2023-03-22T21:29:45.447Z,6.96
2023-03-22T21:32:31.081Z,7.62
2023-03-22T21:35:10.543Z,8.75
2023-03-22T21:37:49.950Z,9.30
2023-03-22T21:40:32.176Z,10.03
2023-03-22T21:43:11.552Z,9.42
2023-03-22T21:45:56.217Z,8.19
2023-03-22T21:48:43.284Z,7.46
2023-03-22T21:51:26.340Z,6.61
2023-03-22T21:54:07.038Z,6.12
2023-03-22T21:56:47.154Z,7.15
2023-03-22T21:59:26.501Z,7.25
2023-03-22T22:02:08.946Z,6.95
2023-03-22T22:04:54.336Z,5.79
2023-03-22T22:07:33.831Z,6.44
2023-03-22T22:10:14.660Z,7.45
2023-03-22T22:12:54.567Z,5.48
2023-03-22T22:15:34.148Z,5.82
2023-03-22T22:18:16.283Z,5.74
2023-03-22T22:21:02.688Z,6.59
2023-03-22T22:23:45.053Z,6.77
2023-03-22T22:26:25.877Z,5.23
2023-03-22T22:29:07.932Z,5.59
2023-03-22T22:31:47.868Z,5.76
2023-03-22T22:34:28.295Z,6.34
2023-03-22T22:37:12.917Z,6.14
2023-03-22T22:39:52.573Z,6.21
2023-03-22T22:42:35.987Z,5.50
2023-03-22T22:45:17.284Z,5.80
2023-03-22T22:47:56.803Z,6.22
2023-03-22T22:50:36.148Z,6.48
2023-03-22T22:53:20.675Z,10.00
2023-03-22T22:56:00.103Z,8.30
2023-03-22T22:58:39.619Z,9.41
2023-03-22T23:01:20.578Z,10.43
2023-03-22T23:03:59.944Z,10.46
2023-03-22T23:06:39.364Z,9.53
2023-03-22T23:09:26.292Z,9.15
2023-03-22T23:12:05.839Z,9.08
2023-03-22T23:14:47.700Z,9.18
2023-03-22T23:17:27.563Z,9.16
2023-03-22T23:20:14.353Z,9.08
2023-03-22T23:22:53.657Z,9.97
2023-03-22T23:25:38.249Z,11.21
2023-03-22T23:28:18.613Z,7.56
2023-03-22T23:30:58.101Z,6.25
2023-03-22T23:33:38.507Z,7.14
2023-03-22T23:36:20.507Z,5.95
2023-03-22T23:39:02.385Z,5.75
2023-03-22T23:41:47.166Z,4.15
2023-03-22T23:44:27.744Z,3.56
2023-03-22T23:47:07.281Z,2.81
2023-03-22T23:49:46.623Z,2.88
2023-03-22T23:52:25.985Z,2.40
2023-03-22T23:55:05.411Z,2.37
2023-03-22T23:57:50.042Z,2.50
